Time;durP1;ratioP1;P1;durP2;ratioP2;P2;SDS_P1;SDS_P2;PMS_P1;PMS_P2;Temp;Humidity;BMP_temperature;BMP_pressure;BME280_temperature;BME280_humidity;BME280_pressure;Samples;Min_cycle;Max_cycle;Signal;HPM_P1;HPM_P2
2021/07/24 00:02:00;;;;;;;;;;;;;;;16.63;43.95;95207.25;5006039;28;20074;-71
2021/07/24 00:04:26;;;;;;;9.63;6.50;;;;;;;16.67;43.81;95201.44;5006600;28;19987;-70
2021/07/24 00:06:51;;;;;;;8.88;6.60;;;;;;;16.76;43.60;95190.16;5004845;28;20065;-70
2021/07/24 00:09:17;;;;;;;13.05;6.78;;;;;;;16.84;43.09;95190.88;5006432;28;20116;-70
2021/07/24 00:11:42;;;;;;;10.70;6.63;;;;;;;16.73;43.41;95201.34;5007117;28;20430;-71
2021/07/24 00:14:08;;;;;;;10.50;7.35;;;;;;;16.80;43.05;95187.84;5004948;28;20040;-70
2021/07/24 00:16:33;;;;;;;10.88;6.90;;;;;;;16.90;42.75;95180.03;5006957;28;20028;-70
2021/07/24 00:18:58;;;;;;;9.85;7.10;;;;;;;16.88;43.01;95174.06;5007044;28;20041;-70
2021/07/24 00:21:24;;;;;;;8.98;7.00;;;;;;;16.93;42.91;95176.06;5006614;28;20213;-70
2021/07/24 00:23:49;;;;;;;9.98;7.05;;;;;;;16.79;43.20;95178.13;5006921;28;20319;-71
2021/07/24 00:26:15;;;;;;;10.88;7.07;;;;;;;16.87;42.94;95177.78;5006240;28;20095;-70
2021/07/24 00:28:41;;;;;;;11.43;6.82;;;;;;;16.89;42.91;95172.19;5005501;28;20029;-71
2021/07/24 00:31:06;;;;;;;8.70;7.00;;;;;;;16.64;43.57;95173.16;5006363;28;20474;-71
2021/07/24 00:33:32;;;;;;;9.80;6.30;;;;;;;16.79;43.00;95169.25;5006936;28;20420;-70
2021/07/24 00:35:57;;;;;;;10.40;6.57;;;;;;;16.77;43.08;95164.91;5005955;28;20471;-70
2021/07/24 00:38:25;;;;;;;9.48;6.75;;;;;;;16.80;42.95;95160.97;5006692;28;20038;-74
2021/07/24 00:40:53;;;;;;;9.43;6.85;;;;;;;16.79;42.97;95147.75;5006654;28;20340;-70
2021/07/24 00:43:20;;;;;;;10.80;7.15;;;;;;;16.61;43.54;95157.50;5004551;28;20147;-70
2021/07/24 00:45:49;;;;;;;9.45;6.50;;;;;;;16.59;43.57;95157.72;5004607;28;20116;-70
2021/07/24 00:48:20;;;;;;;8.73;6.30;;;;;;;16.63;43.46;95158.09;5001846;28;20040;-70
2021/07/24 00:50:49;;;;;;;9.05;6.57;;;;;;;16.59;43.63;95154.22;5005994;28;20153;-70
2021/07/24 00:53:21;;;;;;;10.13;6.85;;;;;;;16.40;44.08;95154.25;5005968;28;20629;-71
2021/07/24 00:55:48;;;;;;;9.77;6.32;;;;;;;16.51;43.51;95156.19;4989806;28;20041;-70
2021/07/24 00:58:27;;;;;;;8.65;6.57;;;;;;;16.49;43.46;95142.13;5005450;28;20037;-70
2021/07/24 01:00:53;;;;;;;8.77;6.57;;;;;;;16.42;43.77;95137.91;5003542;28;20049;-70
2021/07/24 01:03:18;;;;;;;10.98;6.80;;;;;;;16.49;43.46;95131.38;5015636;28;20042;-71
2021/07/24 01:05:44;;;;;;;9.05;6.60;;;;;;;16.36;43.76;95123.53;5003742;28;20045;-70
2021/07/24 01:08:09;;;;;;;11.25;7.60;;;;;;;16.25;44.04;95136.63;4987502;28;20077;-70
2021/07/24 01:10:35;;;;;;;11.20;6.90;;;;;;;16.11;44.65;95125.25;5005280;28;20038;-70
2021/07/24 01:13:01;;;;;;;8.60;6.57;;;;;;;16.15;44.42;95130.16;5006206;28;20475;-71
2021/07/24 01:15:26;;;;;;;9.18;6.85;;;;;;;16.20;44.02;95117.69;5003547;28;20119;-71
2021/07/24 01:17:52;;;;;;;9.10;6.72;;;;;;;16.13;43.96;95116.97;5005966;28;20029;-70
2021/07/24 01:20:18;;;;;;;10.18;6.88;;;;;;;16.12;44.59;95120.69;5005636;28;20042;-70
2021/07/24 01:22:43;;;;;;;10.57;6.97;;;;;;;15.94;44.33;95110.81;5003975;28;20048;-71
2021/07/24 01:25:09;;;;;;;13.38;6.82;;;;;;;16.11;44.16;95110.97;5005354;28;20030;-70
2021/07/24 01:27:43;;;;;;;11.18;6.82;;;;;;;16.03;44.46;95108.59;5005813;28;20041;-70
2021/07/24 01:30:10;;;;;;;10.50;6.55;;;;;;;16.05;44.10;95109.22;5005219;28;20061;-70
2021/07/24 01:32:36;;;;;;;8.95;6.53;;;;;;;15.70;45.37;95114.16;5005749;28;20483;-71
2021/07/24 01:35:01;;;;;;;10.02;6.75;;;;;;;15.75;45.06;95119.66;5004974;28;20044;-70
2021/07/24 01:37:27;;;;;;;10.60;7.20;;;;;;;15.86;44.70;95118.09;5005265;28;20038;-71
2021/07/24 01:39:52;;;;;;;9.35;5.93;;;;;;;15.94;44.47;95125.03;5005844;28;20068;-70
2021/07/24 01:42:18;;;;;;;10.95;7.20;;;;;;;15.86;44.85;95126.16;5005226;28;20042;-71
2021/07/24 01:44:43;;;;;;;10.45;6.95;;;;;;;15.97;44.41;95124.59;5005757;28;20140;-71
2021/07/24 01:47:08;;;;;;;10.15;6.65;;;;;;;15.90;44.58;95126.53;5002839;28;20046;-71
2021/07/24 01:52:47;;;;;;;9.45;6.75;;;;;;;15.69;45.53;95139.34;5004494;28;20037;-71
2021/07/24 01:55:24;;;;;;;9.70;6.00;;;;;;;15.85;44.75;95148.66;5003974;28;20041;-71
2021/07/24 01:57:52;;;;;;;9.13;6.35;;;;;;;15.83;44.46;95153.44;5004340;28;20310;-71
2021/07/24 02:00:17;;;;;;;8.80;6.50;;;;;;;15.88;44.46;95152.78;5004186;28;20076;-71
2021/07/24 02:02:43;;;;;;;12.75;6.60;;;;;;;15.94;44.55;95148.38;5003711;28;20438;-71
2021/07/24 02:05:48;;;;;;;9.20;6.50;;;;;;;15.91;44.34;95138.88;5003553;28;20037;-71
2021/07/24 02:08:19;;;;;;;10.15;6.68;;;;;;;15.94;44.20;95146.50;5004677;28;20076;-71
2021/07/24 02:10:44;;;;;;;9.85;6.15;;;;;;;15.90;44.28;95145.31;4998963;28;20091;-71
2021/07/24 02:13:10;;;;;;;8.10;6.18;;;;;;;15.95;44.24;95141.97;5004881;28;20022;-71
2021/07/24 02:15:36;;;;;;;11.45;5.72;;;;;;;15.98;44.04;95134.28;4987355;28;20477;-70
2021/07/24 02:18:02;;;;;;;8.63;6.22;;;;;;;15.89;44.57;95127.56;5005160;28;20026;-70
2021/07/24 02:20:27;;;;;;;9.48;6.88;;;;;;;15.80;44.66;95123.53;5003919;28;20034;-70
2021/07/24 02:22:54;;;;;;;10.07;6.75;;;;;;;15.83;44.67;95121.22;5003134;28;20030;-70
2021/07/24 02:25:19;;;;;;;9.82;6.43;;;;;;;15.80;44.43;95107.44;5003349;28;20042;-71
2021/07/24 02:27:48;;;;;;;14.45;8.02;;;;;;;15.67;44.99;95119.16;5002560;28;20048;-71
2021/07/24 02:30:14;;;;;;;10.55;6.55;;;;;;;15.72;44.88;95114.75;5003189;28;20022;-70
2021/07/24 02:32:40;;;;;;;9.50;6.88;;;;;;;15.59;45.31;95110.34;5004781;28;20044;-71
2021/07/24 02:35:06;;;;;;;10.13;6.97;;;;;;;15.43;45.85;95102.84;5004883;28;20131;-71
2021/07/24 02:37:31;;;;;;;14.13;6.90;;;;;;;15.29;46.54;95099.44;5003308;28;20770;-71
2021/07/24 02:39:57;;;;;;;9.65;6.45;;;;;;;15.23;46.33;95088.59;5004611;28;20042;-71
2021/07/24 02:42:22;;;;;;;8.98;6.95;;;;;;;15.28;46.10;95097.81;5004209;28;20041;-71
2021/07/24 02:44:48;;;;;;;7.97;6.40;;;;;;;15.12;46.98;95086.63;5004913;28;20566;-71
2021/07/24 02:47:13;;;;;;;8.57;7.10;;;;;;;15.28;46.03;95095.13;4999939;28;20042;-71
2021/07/24 02:49:39;;;;;;;10.75;6.88;;;;;;;15.37;46.20;95093.84;5003511;28;20438;-70
2021/07/24 02:52:05;;;;;;;9.90;6.70;;;;;;;15.37;46.13;95091.16;5004712;28;20034;-70
2021/07/24 02:54:30;;;;;;;8.75;6.38;;;;;;;15.32;46.09;95086.44;5004497;28;20407;-70
2021/07/24 02:56:56;;;;;;;10.40;6.90;;;;;;;15.36;46.23;95084.13;5003309;28;20084;-71
2021/07/24 02:59:21;;;;;;;12.15;6.90;;;;;;;15.21;46.80;95084.47;5006014;28;20026;-71
2021/07/24 03:01:46;;;;;;;9.52;6.43;;;;;;;15.17;46.84;95076.06;5008953;28;20131;-71
2021/07/24 03:04:12;;;;;;;10.25;7.30;;;;;;;15.34;46.08;95070.13;5007967;28;20419;-70
2021/07/24 03:06:37;;;;;;;8.45;5.93;;;;;;;15.52;45.50;95072.00;5010249;28;20033;-71
2021/07/24 03:09:06;;;;;;;9.05;6.70;;;;;;;15.51;45.30;95067.69;5007981;28;20081;-70
2021/07/24 03:11:32;;;;;;;10.07;6.80;;;;;;;15.49;45.42;95059.03;5008482;28;20145;-71
2021/07/24 03:13:57;;;;;;;10.25;6.30;;;;;;;15.48;45.13;95052.88;5008022;28;20061;-71
2021/07/24 03:16:22;;;;;;;9.70;7.18;;;;;;;15.45;45.35;95047.13;5007915;28;20030;-70
2021/07/24 03:18:48;;;;;;;9.80;6.10;;;;;;;15.59;44.92;95058.53;5007728;28;20411;-71
2021/07/24 03:21:13;;;;;;;8.35;6.78;;;;;;;15.52;45.16;95057.75;5008075;28;20475;-71
2021/07/24 03:23:39;;;;;;;9.52;6.45;;;;;;;15.50;45.39;95063.34;5007574;28;20038;-71
2021/07/24 03:26:08;;;;;;;8.85;6.70;;;;;;;15.45;45.57;95064.03;5002433;28;20045;-71
2021/07/24 03:28:34;;;;;;;12.00;6.53;;;;;;;15.62;44.99;95068.84;5008307;28;20468;-71
2021/07/24 03:30:59;;;;;;;11.73;6.72;;;;;;;15.66;45.14;95069.19;5007822;28;20046;-71
2021/07/24 03:33:25;;;;;;;9.43;6.63;;;;;;;15.56;45.51;95075.09;5008332;28;20033;-71
2021/07/24 03:35:50;;;;;;;13.32;7.45;;;;;;;15.45;46.01;95069.41;5007101;28;20046;-71
2021/07/24 03:38:16;;;;;;;10.68;6.20;;;;;;;15.50;45.41;95066.03;5007944;28;20327;-71
2021/07/24 03:40:43;;;;;;;10.68;6.50;;;;;;;15.52;45.39;95063.97;5007807;28;20029;-71
2021/07/24 03:43:09;;;;;;;9.00;6.05;;;;;;;15.45;45.75;95065.88;5008053;28;20422;-71
2021/07/24 03:45:34;;;;;;;9.93;6.35;;;;;;;15.38;46.31;95067.81;5007671;28;20030;-71
2021/07/24 03:48:03;;;;;;;10.05;6.97;;;;;;;15.39;45.91;95070.28;5003802;28;20084;-71
2021/07/24 03:50:29;;;;;;;12.25;7.40;;;;;;;15.53;45.67;95072.84;5005974;28;20267;-71
2021/07/24 03:52:54;;;;;;;11.20;7.07;;;;;;;15.63;45.06;95064.31;5007715;28;20038;-71
2021/07/24 03:55:19;;;;;;;12.52;6.78;;;;;;;15.59;45.34;95062.06;5006772;28;20684;-71
2021/07/24 03:57:45;;;;;;;10.30;7.03;;;;;;;15.65;45.14;95064.88;5007643;28;20034;-71
2021/07/24 04:00:11;;;;;;;16.88;6.78;;;;;;;15.64;45.11;95066.75;5007078;28;20108;-70
2021/07/24 04:02:39;;;;;;;11.30;6.65;;;;;;;15.68;45.13;95065.28;5007267;28;20057;-71
2021/07/24 04:05:04;;;;;;;;;;;;;;;15.82;44.60;95062.41;5005491;28;20037;-71
2021/07/24 04:07:30;;;;;;;11.32;7.32;;;;;;;15.83;44.73;95064.03;5005993;28;20122;-71
2021/07/24 04:09:55;;;;;;;12.05;6.65;;;;;;;15.86;44.81;95071.66;5005601;28;20165;-70
2021/07/24 04:12:22;;;;;;;11.20;6.75;;;;;;;16.08;44.34;95063.13;4986342;28;20491;-70
2021/07/24 04:14:47;;;;;;;9.68;6.70;;;;;;;16.09;44.40;95070.13;4988013;28;20114;-70
2021/07/24 04:17:13;;;;;;;9.70;6.53;;;;;;;16.37;43.86;95068.75;4988076;28;20087;-71
2021/07/24 04:19:38;;;;;;;10.20;6.65;;;;;;;16.49;43.33;95066.13;4987834;28;20173;-71
2021/07/24 04:22:04;;;;;;;12.23;6.90;;;;;;;16.43;43.53;95067.84;4987369;28;20105;-70
2021/07/24 04:24:29;;;;;;;8.40;6.20;;;;;;;16.67;43.03;95069.75;4987574;28;20121;-71
2021/07/24 04:26:55;;;;;;;8.50;6.07;;;;;;;16.79;42.71;95069.78;4987762;28;20291;-70
2021/07/24 04:29:22;;;;;;;7.47;5.97;;;;;;;16.90;42.63;95082.44;4987004;28;20571;-71
2021/07/24 04:31:47;;;;;;;9.35;6.13;;;;;;;17.03;42.39;95079.53;4986051;28;20367;-71
2021/07/24 04:34:12;;;;;;;10.23;6.68;;;;;;;17.02;42.88;95085.13;4986651;28;20440;-71
2021/07/24 04:36:40;;;;;;;9.98;6.35;;;;;;;17.13;42.53;95078.97;4987408;28;20547;-71
2021/07/24 04:39:05;;;;;;;;;;;;;;;17.21;41.96;95083.19;4986984;28;20099;-71
2021/07/24 04:41:31;;;;;;;8.97;5.73;;;;;;;17.32;41.92;95083.41;4987310;28;20326;-71
2021/07/24 04:43:56;;;;;;;8.25;5.85;;;;;;;17.39;42.21;95076.88;4986878;28;20058;-71
2021/07/24 04:46:22;;;;;;;8.35;6.13;;;;;;;17.41;42.19;95073.94;4986531;28;20439;-71
2021/07/24 04:48:47;;;;;;;7.72;5.78;;;;;;;17.66;41.51;95080.94;4983123;28;20495;-71
2021/07/24 04:51:14;;;;;;;8.45;6.25;;;;;;;17.74;41.09;95074.38;4987204;28;20101;-71
2021/07/24 04:53:40;;;;;;;11.30;6.60;;;;;;;17.90;41.28;95072.84;4987113;28;20697;-71
2021/07/24 04:56:06;;;;;;;10.18;6.13;;;;;;;18.05;41.25;95072.31;4986900;28;20161;-71
2021/07/24 04:58:31;;;;;;;8.73;6.30;;;;;;;18.12;40.36;95064.91;4968686;28;20117;-71
2021/07/24 05:00:56;;;;;;;7.93;5.95;;;;;;;18.25;40.31;95063.00;4986435;28;20079;-71
2021/07/24 05:03:22;;;;;;;8.23;6.20;;;;;;;18.36;40.03;95055.94;4986586;28;20537;-71
2021/07/24 05:05:49;;;;;;;9.45;6.07;;;;;;;18.58;40.04;95052.56;4987818;28;20118;-71
2021/07/24 05:08:14;;;;;;;;;;;;;;;18.72;39.31;95048.47;4987290;28;20085;-71
2021/07/24 05:10:40;;;;;;;8.37;6.47;;;;;;;18.74;39.76;95037.47;4984656;28;19988;-71
2021/07/24 05:13:06;;;;;;;10.35;6.60;;;;;;;18.91;38.96;95034.78;4985122;28;20034;-71
2021/07/24 05:15:31;;;;;;;10.77;6.35;;;;;;;19.10;38.60;95027.22;4984215;28;20114;-71
2021/07/24 05:17:57;;;;;;;8.52;6.15;;;;;;;19.10;39.23;95031.81;4984522;28;20087;-71
2021/07/24 05:20:24;;;;;;;10.85;6.53;;;;;;;19.08;38.24;95022.06;4986255;28;20598;-71
2021/07/24 05:22:50;;;;;;;9.40;6.57;;;;;;;19.08;38.39;95015.88;4985206;28;20575;-71
2021/07/24 05:25:16;;;;;;;8.55;6.28;;;;;;;19.19;38.63;95006.88;4981127;28;20093;-71
2021/07/24 05:27:41;;;;;;;9.18;6.45;;;;;;;19.31;38.20;94997.88;4986062;28;20607;-71
2021/07/24 05:30:07;;;;;;;8.80;6.20;;;;;;;19.29;38.09;94992.72;4986163;28;20082;-71
2021/07/24 05:32:33;;;;;;;8.43;6.13;;;;;;;19.47;38.35;94990.78;4986449;28;20490;-71
2021/07/24 05:34:58;;;;;;;10.02;6.63;;;;;;;19.56;37.88;94988.47;4986106;28;20038;-71
2021/07/24 05:37:25;;;;;;;9.02;6.57;;;;;;;19.70;37.89;94981.63;4986427;28;20137;-72
2021/07/24 05:39:50;;;;;;;8.25;6.63;;;;;;;19.78;37.25;94991.16;4986399;28;20188;-71
2021/07/24 05:42:15;;;;;;;10.05;6.70;;;;;;;19.97;37.14;94980.88;4985544;28;20567;-71
2021/07/24 05:44:41;;;;;;;8.18;6.47;;;;;;;20.02;36.87;94972.00;4986445;28;20113;-75
2021/07/24 05:47:06;;;;;;;8.25;6.28;;;;;;;20.08;36.94;94970.97;4979991;28;20111;-71
2021/07/24 05:49:32;;;;;;;10.80;6.95;;;;;;;20.20;36.70;94972.72;4986219;28;20451;-71
2021/07/24 05:51:57;;;;;;;9.38;6.38;;;;;;;20.18;36.80;94966.75;4985672;28;20030;-71
2021/07/24 05:54:23;;;;;;;9.00;6.32;;;;;;;20.25;36.34;94961.94;4985836;28;20096;-71
2021/07/24 05:56:51;;;;;;;10.93;6.85;;;;;;;20.32;36.65;94959.84;4985674;28;20560;-71
2021/07/24 05:59:16;;;;;;;8.57;6.30;;;;;;;20.47;36.68;94952.94;4985983;28;20042;-71
2021/07/24 06:01:42;;;;;;;9.88;6.35;;;;;;;20.53;36.45;94951.09;4986310;28;20102;-71
2021/07/24 06:04:08;;;;;;;9.75;6.60;;;;;;;20.70;36.27;94951.00;4985639;28;20396;-71
2021/07/24 06:06:34;;;;;;;9.60;7.07;;;;;;;20.83;35.47;94953.25;4988414;28;20095;-72
2021/07/24 06:08:59;;;;;;;9.13;6.90;;;;;;;21.07;35.40;94946.63;4985027;28;20157;-71
2021/07/24 06:11:24;;;;;;;8.48;6.38;;;;;;;21.13;35.88;94943.69;4986024;28;20564;-71
2021/07/24 06:13:50;;;;;;;10.38;6.78;;;;;;;21.19;36.00;94949.13;4985786;28;20469;-71
2021/07/24 06:16:15;;;;;;;9.25;6.80;;;;;;;21.25;34.44;94942.66;4985523;28;20113;-72
2021/07/24 06:18:41;;;;;;;9.98;6.68;;;;;;;21.48;34.19;94954.16;4985851;28;20094;-72
2021/07/24 06:21:06;;;;;;;8.82;6.22;;;;;;;21.51;33.90;94956.31;4985827;28;20600;-72
2021/07/24 06:23:32;;;;;;;9.45;6.40;;;;;;;21.40;34.29;94957.34;4984529;28;20066;-72
2021/07/24 06:26:01;;;;;;;8.77;6.95;;;;;;;21.33;34.04;94958.44;4985306;28;20259;-72
2021/07/24 06:28:26;;;;;;;12.32;6.63;;;;;;;21.52;33.89;94966.09;4985919;28;20061;-71
2021/07/24 06:30:52;;;;;;;9.40;6.22;;;;;;;21.37;33.96;94969.53;4985007;28;20106;-72
2021/07/24 06:33:17;;;;;;;12.73;7.10;;;;;;;21.40;34.61;94969.00;4987299;28;20031;-71
2021/07/24 06:35:42;;;;;;;10.45;6.35;;;;;;;21.57;33.82;94976.94;4989094;28;20098;-71
2021/07/24 06:38:09;;;;;;;10.75;6.93;;;;;;;21.84;34.58;94973.25;4989493;28;20471;-72
2021/07/24 06:40:34;;;;;;;8.53;5.77;;;;;;;22.03;34.12;94986.34;4989088;28;20079;-72
2021/07/24 06:43:00;;;;;;;11.20;6.50;;;;;;;21.81;32.98;94984.59;4988404;28;20050;-72
2021/07/24 06:45:25;;;;;;;9.30;6.85;;;;;;;22.06;33.26;94984.97;4988421;28;20073;-72
2021/07/24 06:47:51;;;;;;;8.38;5.82;;;;;;;22.20;32.98;94985.28;4985308;28;20104;-72
2021/07/24 06:50:16;;;;;;;7.65;6.47;;;;;;;22.41;33.12;94978.78;4989009;28;20142;-72
2021/07/24 06:52:43;;;;;;;8.45;6.38;;;;;;;22.62;32.11;94975.31;4989434;28;20086;-72
2021/07/24 06:55:09;;;;;;;;;;;;;;;22.65;32.26;94962.03;4988934;28;20111;-72
2021/07/24 06:57:35;;;;;;;8.70;6.50;;;;;;;22.18;32.08;94974.69;4989550;28;20359;-72
2021/07/24 07:00:00;;;;;;;8.67;6.30;;;;;;;22.50;32.25;94967.41;4988062;28;20228;-72
2021/07/24 07:02:26;;;;;;;8.40;6.47;;;;;;;22.53;32.25;94970.44;4987046;28;20698;-72
2021/07/24 07:04:51;;;;;;;9.27;6.35;;;;;;;22.57;32.50;94962.53;4987741;28;20034;-72
2021/07/24 07:07:20;;;;;;;7.07;5.97;;;;;;;22.70;32.41;94960.41;4991543;28;20141;-72
2021/07/24 07:09:46;;;;;;;7.53;6.28;;;;;;;22.90;31.65;94962.25;4988460;28;20700;-72
2021/07/24 07:12:11;;;;;;;13.88;6.50;;;;;;;22.94;30.98;94962.53;4986962;28;20069;-71
2021/07/24 07:14:36;;;;;;;11.90;6.75;;;;;;;22.82;31.80;94955.50;4990011;28;20042;-72
2021/07/24 07:17:02;;;;;;;13.52;6.72;;;;;;;23.00;31.60;94972.28;4988635;28;20334;-72
2021/07/24 07:19:27;;;;;;;9.45;6.50;;;;;;;22.51;31.82;94974.47;4986844;28;20039;-72
2021/07/24 07:21:53;;;;;;;7.70;6.55;;;;;;;22.67;31.60;94967.16;4984520;28;20026;-72
2021/07/24 07:24:18;;;;;;;11.93;6.72;;;;;;;22.64;31.53;94973.94;4988334;28;20526;-72
2021/07/24 07:26:44;;;;;;;10.75;6.57;;;;;;;22.43;32.53;94962.25;4988198;28;20081;-72
2021/07/24 07:29:09;;;;;;;10.68;7.13;;;;;;;22.34;32.79;94966.59;4988614;28;20044;-72
2021/07/24 07:31:35;;;;;;;7.95;6.22;;;;;;;22.21;32.63;94973.34;4987915;28;20496;-72
2021/07/24 07:34:01;;;;;;;9.25;7.43;;;;;;;22.59;32.63;94976.66;4987721;28;20038;-72
2021/07/24 07:36:26;;;;;;;13.00;7.50;;;;;;;23.05;31.80;94969.56;4988361;28;20027;-72
2021/07/24 07:38:52;;;;;;;9.13;7.25;;;;;;;22.70;31.52;94976.66;4988035;28;20670;-72
2021/07/24 07:41:18;;;;;;;9.05;7.18;;;;;;;22.62;31.84;94973.41;4987853;28;20037;-72
2021/07/24 07:43:44;;;;;;;11.30;7.88;;;;;;;22.60;32.10;94972.06;4984126;28;20079;-72
2021/07/24 07:46:09;;;;;;;9.40;6.77;;;;;;;23.10;31.90;94974.97;4986053;28;20045;-72
2021/07/24 07:48:35;;;;;;;9.55;6.63;;;;;;;23.29;31.29;94972.50;4984180;28;20026;-72
2021/07/24 07:51:02;;;;;;;10.37;7.33;;;;;;;23.41;31.44;94966.78;4987631;28;20457;-72
2021/07/24 07:53:27;;;;;;;9.98;7.43;;;;;;;23.27;31.34;94965.72;4987685;28;20056;-72
2021/07/24 07:55:52;;;;;;;8.75;6.68;;;;;;;23.49;31.51;94968.09;4986531;28;20035;-72
2021/07/24 07:58:18;;;;;;;12.50;7.50;;;;;;;23.41;31.10;94968.69;4986326;28;20327;-72
2021/07/24 08:00:43;;;;;;;11.65;9.32;;;;;;;23.76;29.78;94974.28;4988645;28;20118;-72
2021/07/24 08:03:09;;;;;;;11.90;7.80;;;;;;;23.46;31.95;94989.56;4987861;28;20074;-72
2021/07/24 08:05:34;;;;;;;14.60;9.70;;;;;;;23.92;29.61;94983.16;4987754;28;20038;-72
2021/07/24 08:07:59;;;;;;;13.43;10.17;;;;;;;23.73;29.94;94980.25;4987492;28;20058;-72
2021/07/24 08:10:25;;;;;;;13.30;8.53;;;;;;;24.28;29.37;94973.97;4987421;28;20038;-72
2021/07/24 08:12:51;;;;;;;11.00;8.20;;;;;;;24.36;30.58;94976.13;4986030;28;20117;-72
2021/07/24 08:15:16;;;;;;;12.27;7.60;;;;;;;24.67;29.94;94962.28;4985681;28;20103;-72
2021/07/24 08:17:42;;;;;;;13.37;10.20;;;;;;;24.57;29.32;94965.91;4988050;28;20143;-72
2021/07/24 08:20:08;;;;;;;10.50;8.33;;;;;;;25.11;29.92;94959.72;4987136;28;20130;-72
2021/07/24 08:22:33;;;;;;;15.77;11.47;;;;;;;24.90;29.31;94956.41;4987309;28;20122;-72
2021/07/24 08:24:59;;;;;;;11.80;8.60;;;;;;;25.44;27.86;94945.47;4985920;28;20044;-72
2021/07/24 08:27:25;;;;;;;13.10;9.20;;;;;;;25.51;29.19;94956.06;4987626;28;20038;-73
2021/07/24 08:29:51;;;;;;;11.38;8.13;;;;;;;25.56;28.77;94954.06;4984768;28;20556;-73
2021/07/24 08:32:17;;;;;;;10.98;8.32;;;;;;;25.30;29.46;94953.53;4986729;28;20045;-73
2021/07/24 08:34:42;;;;;;;15.33;10.30;;;;;;;25.51;28.05;94958.78;4985704;28;20427;-73
2021/07/24 08:37:08;;;;;;;15.77;9.23;;;;;;;25.75;27.82;94957.94;4987136;28;20294;-73
2021/07/24 08:39:35;;;;;;;10.90;7.90;;;;;;;25.91;27.14;94956.66;4986694;28;20038;-73
2021/07/24 08:42:04;;;;;;;13.57;8.18;;;;;;;25.89;27.33;94963.50;4968822;28;20506;-73
2021/07/24 08:44:29;;;;;;;15.10;8.30;;;;;;;25.41;28.01;94951.50;4982363;28;20117;-73
2021/07/24 08:46:55;;;;;;;13.83;8.27;;;;;;;25.41;28.16;94955.06;4981746;28;20551;-72
2021/07/24 08:49:20;;;;;;;12.87;9.50;;;;;;;25.19;28.39;94950.91;4983259;28;20054;-73
2021/07/24 08:51:46;;;;;;;14.70;9.73;;;;;;;25.54;27.75;94941.84;4982660;28;20563;-73
2021/07/24 08:54:11;;;;;;;11.53;8.40;;;;;;;25.82;28.46;94942.03;4982213;28;20050;-73
2021/07/24 08:56:44;;;;;;;10.87;8.20;;;;;;;25.83;27.71;94949.13;4963350;28;20026;-73
2021/07/24 08:59:10;;;;;;;14.10;9.35;;;;;;;25.87;27.01;94941.97;4985465;28;20031;-73
2021/07/24 09:01:36;;;;;;;9.83;8.00;;;;;;;25.67;28.53;94943.88;4982018;28;20026;-72
2021/07/24 09:04:03;;;;;;;10.32;8.10;;;;;;;25.75;28.82;94952.47;4965194;28;20038;-73
2021/07/24 09:06:28;;;;;;;9.15;7.35;;;;;;;25.79;27.59;94942.63;4981988;28;20566;-72
2021/07/24 09:08:54;;;;;;;9.27;7.70;;;;;;;25.22;28.36;94942.19;4981151;28;20050;-72
2021/07/24 09:11:19;;;;;;;14.27;8.87;;;;;;;25.00;29.31;94939.97;4982444;28;20057;-73
2021/07/24 09:13:45;;;;;;;10.27;8.07;;;;;;;24.96;29.66;94939.75;4984256;28;20085;-73
2021/07/24 09:16:11;;;;;;;12.33;7.60;;;;;;;25.24;29.41;94946.53;4986245;28;20058;-73
2021/07/24 09:18:37;;;;;;;13.07;9.57;;;;;;;25.86;27.85;94943.88;4981944;28;20042;-73
2021/07/24 09:21:02;;;;;;;14.70;9.87;;;;;;;25.66;27.68;94944.97;4984564;28;20633;-73
2021/07/24 09:23:29;;;;;;;11.13;9.30;;;;;;;25.77;27.52;94942.13;4979402;28;20085;-73
2021/07/24 09:25:55;;;;;;;12.65;7.88;;;;;;;25.82;28.41;94933.84;4977371;28;20036;-72
2021/07/24 09:28:20;;;;;;;11.80;8.80;;;;;;;25.18;28.49;94941.13;4986433;28;20476;-72
2021/07/24 09:30:45;;;;;;;10.27;7.47;;;;;;;25.35;28.91;94928.97;4987237;28;20038;-72
2021/07/24 09:33:12;;;;;;;12.03;8.27;;;;;;;25.23;29.09;94921.22;4981677;28;20042;-72
2021/07/24 09:35:41;;;;;;;12.63;8.05;;;;;;;24.36;30.26;94934.50;4981771;28;20042;-72
2021/07/24 09:38:25;;;;;;;9.27;7.45;;;;;;;24.89;29.97;94943.88;4980458;28;20033;-72
2021/07/24 09:40:50;;;;;;;11.02;8.70;;;;;;;25.12;29.65;94931.41;4981009;28;20038;-72
2021/07/24 09:43:35;;;;;;;12.33;7.40;;;;;;;25.59;29.49;94930.88;4986101;28;20034;-72
2021/07/24 09:46:21;;;;;;;11.53;7.20;;;;;;;25.81;28.91;94943.16;4979153;28;20468;-72
2021/07/24 09:48:48;;;;;;;11.25;8.25;;;;;;;26.43;28.48;94949.63;4998413;28;20460;-72
2021/07/24 09:51:14;;;;;;;11.15;8.65;;;;;;;26.10;27.73;94961.31;4999506;28;20125;-72
2021/07/24 09:53:40;;;;;;;8.80;7.23;;;;;;;25.60;29.36;94966.00;5000325;28;20506;-72
2021/07/24 09:56:06;;;;;;;19.10;8.18;;;;;;;24.19;30.82;94973.75;5000608;28;20135;-73
2021/07/24 09:58:32;;;;;;;12.73;8.33;;;;;;;23.27;31.54;94968.44;5000747;28;20619;-72
2021/07/24 10:01:18;;;;;;;12.87;8.53;;;;;;;22.92;32.73;94969.03;4999725;28;20538;-72
2021/07/24 10:03:47;;;;;;;9.80;7.80;;;;;;;23.34;32.56;94966.25;5000669;28;20326;-72
2021/07/24 10:06:14;;;;;;;10.60;7.18;;;;;;;23.81;31.83;94958.78;5003889;28;20606;-72
2021/07/24 10:08:40;;;;;;;13.20;8.77;;;;;;;23.58;31.52;94962.91;5000468;28;20046;-72
2021/07/24 10:11:06;;;;;;;15.93;8.35;;;;;;;22.98;33.01;94969.03;5001172;28;20503;-72
2021/07/24 10:13:31;;;;;;;12.03;8.10;;;;;;;23.04;33.10;94973.34;5000843;28;20075;-71
2021/07/24 10:15:57;;;;;;;21.20;8.20;;;;;;;22.82;33.65;94968.22;4999265;28;20129;-72
2021/07/24 10:18:22;;;;;;;11.48;8.55;;;;;;;23.09;33.09;94972.53;4998632;28;20049;-72
2021/07/24 10:20:49;;;;;;;10.90;8.20;;;;;;;23.09;32.63;94970.66;5000966;28;20029;-72
2021/07/24 10:23:15;;;;;;;12.63;8.02;;;;;;;23.13;33.55;94971.72;4999086;28;20521;-72
2021/07/24 10:25:46;;;;;;;14.90;8.27;;;;;;;23.25;33.30;94986.94;5000095;28;20026;-71
2021/07/24 10:28:12;;;;;;;11.82;7.82;;;;;;;22.95;33.56;94983.97;4999904;28;20153;-71
2021/07/24 10:30:38;;;;;;;10.45;8.10;;;;;;;22.92;33.90;94995.38;5000293;28;20062;-72
2021/07/24 10:33:03;;;;;;;9.27;7.30;;;;;;;23.02;34.13;95005.41;5001015;28;20497;-72
2021/07/24 10:35:39;;;;;;;16.98;12.05;;;;;;;22.90;33.53;95013.81;4998470;28;20030;-72
2021/07/24 10:38:30;;;;;;;10.48;8.20;;;;;;;22.82;34.67;95001.63;5000440;28;20041;-72
2021/07/24 10:41:16;;;;;;;9.60;7.68;;;;;;;22.93;34.31;94997.00;5001373;28;20329;-72
2021/07/24 10:44:20;;;;;;;10.90;7.65;;;;;;;22.92;34.35;95011.66;4999116;28;20407;-72
2021/07/24 10:46:46;;;;;;;15.80;7.90;;;;;;;22.64;35.22;95024.69;4996842;28;20472;-71
2021/07/24 10:49:32;;;;;;;10.55;7.68;;;;;;;21.75;36.47;95035.25;5000049;28;20159;-72
2021/07/24 10:51:58;;;;;;;12.68;9.30;;;;;;;21.88;35.84;95039.34;4999795;28;20507;-71
2021/07/24 10:54:24;;;;;;;14.90;8.57;;;;;;;21.86;36.56;95036.09;5000102;28;20052;-72
2021/07/24 10:56:50;;;;;;;13.23;8.57;;;;;;;21.82;35.92;95026.84;4999392;28;20103;-71
2021/07/24 10:59:30;;;;;;;13.23;8.60;;;;;;;21.71;38.49;95017.88;5000079;28;20471;-71
2021/07/24 11:02:01;;;;;;;9.38;7.63;;;;;;;21.87;37.67;95015.25;5000908;28;20571;-71
2021/07/24 11:04:36;;;;;;;11.70;8.38;;;;;;;21.68;37.09;95004.06;4995028;28;20114;-71
2021/07/24 11:09:46;;;;;;;11.48;8.07;;;;;;;22.17;36.81;94983.09;5000413;28;20066;-71
2021/07/24 11:12:12;;;;;;;12.95;7.68;;;;;;;22.51;37.39;94979.88;4995673;28;20744;-72
2021/07/24 11:14:37;;;;;;;9.70;7.63;;;;;;;22.79;37.05;94975.03;4999454;28;20106;-72
2021/07/24 11:17:06;;;;;;;10.50;7.28;;;;;;;23.13;38.43;94979.03;5000097;28;20088;-72
2021/07/24 11:19:51;;;;;;;13.00;7.85;;;;;;;23.41;36.52;94971.38;4995922;28;20145;-72
2021/07/24 11:22:20;;;;;;;9.77;7.30;;;;;;;23.75;35.90;94959.06;5025830;28;20248;-72
2021/07/24 11:24:51;;;;;;;11.65;7.65;;;;;;;24.15;34.92;94954.50;5002390;28;20083;-72
2021/07/24 11:27:26;;;;;;;11.63;8.55;;;;;;;23.57;34.54;94966.72;5001862;28;20450;-71
2021/07/24 11:29:52;;;;;;;12.65;7.65;;;;;;;24.12;35.16;94960.50;5003902;28;20402;-72
2021/07/24 11:32:27;;;;;;;10.77;8.10;;;;;;;24.54;33.98;94962.97;5003312;28;20634;-72
2021/07/24 11:35:18;;;;;;;11.43;7.43;;;;;;;25.04;34.33;94967.41;5001521;28;20030;-72